sensor_id;sensor_type;location;lat;lon;timestamp;pressure;altitude;pressure_sealevel;temperature;humidity
35878;BME280;21982;49.804;24.072;2023-02-28T00:01:12;98393.03;;;-1.78;66.51
35878;BME280;21982;49.804;24.072;2023-02-28T00:03:37;98393.03;;;-1.78;66.63
35878;BME280;21982;49.804;24.072;2023-02-28T00:06:04;98396.00;;;-1.70;66.66
35878;BME280;21982;49.804;24.072;2023-02-28T00:08:30;98333.94;;;-2.20;66.46
35878;BME280;21982;49.804;24.072;2023-02-28T00:10:55;98307.41;;;-2.09;66.78
35878;BME280;21982;49.804;24.072;2023-02-28T00:13:21;98403.03;;;-1.56;66.39
35878;BME280;21982;49.804;24.072;2023-02-28T00:15:46;98402.97;;;-1.54;66.20
35878;BME280;21982;49.804;24.072;2023-02-28T00:18:12;98354.41;;;-1.99;66.50
35878;BME280;21982;49.804;24.072;2023-02-28T00:20:38;98413.59;;;-1.59;66.74
35878;BME280;21982;49.804;24.072;2023-02-28T00:23:03;98411.16;;;-1.62;66.63
35878;BME280;21982;49.804;24.072;2023-02-28T00:25:29;98259.78;;;-2.55;66.45
35878;BME280;21982;49.804;24.072;2023-02-28T00:27:54;98150.31;;;-3.23;66.73
35878;BME280;21982;49.804;24.072;2023-02-28T00:30:22;98417.78;;;-1.72;66.88
35878;BME280;21982;49.804;24.072;2023-02-28T00:32:48;98359.38;;;-2.11;66.45
35878;BME280;21982;49.804;24.072;2023-02-28T00:35:14;98392.69;;;-1.87;66.97
35878;BME280;21982;49.804;24.072;2023-02-28T00:37:40;98438.91;;;-1.78;66.77
35878;BME280;21982;49.804;24.072;2023-02-28T00:40:06;98263.13;;;-2.69;66.74
35878;BME280;21982;49.804;24.072;2023-02-28T00:45:08;98325.53;;;-2.41;66.94
35878;BME280;21982;49.804;24.072;2023-02-28T00:47:34;98362.06;;;-2.12;66.80
35878;BME280;21982;49.804;24.072;2023-02-28T00:50:00;98355.00;;;-2.26;67.21
35878;BME280;21982;49.804;24.072;2023-02-28T00:52:26;98324.88;;;-2.44;67.18
35878;BME280;21982;49.804;24.072;2023-02-28T00:54:53;98287.28;;;-2.68;67.35
35878;BME280;21982;49.804;24.072;2023-02-28T00:57:20;98315.50;;;-2.47;67.30
35878;BME280;21982;49.804;24.072;2023-02-28T00:59:46;98411.38;;;-1.81;67.42
35878;BME280;21982;49.804;24.072;2023-02-28T01:02:11;98301.34;;;-2.41;67.33
35878;BME280;21982;49.804;24.072;2023-02-28T01:04:37;98410.59;;;-1.67;67.19
35878;BME280;21982;49.804;24.072;2023-02-28T01:07:02;98415.28;;;-1.58;67.36
35878;BME280;21982;49.804;24.072;2023-02-28T01:09:27;98246.91;;;-2.57;66.97
35878;BME280;21982;49.804;24.072;2023-02-28T01:11:53;98417.88;;;-1.58;67.06
35878;BME280;21982;49.804;24.072;2023-02-28T01:14:18;98307.97;;;-2.36;67.03
35878;BME280;21982;49.804;24.072;2023-02-28T01:16:44;98256.94;;;-2.66;66.96
35878;BME280;21982;49.804;24.072;2023-02-28T01:19:09;98420.81;;;-1.64;66.89
35878;BME280;21982;49.804;24.072;2023-02-28T01:21:35;98406.91;;;-1.63;67.03
35878;BME280;21982;49.804;24.072;2023-02-28T01:24:02;98405.81;;;-1.59;67.22
35878;BME280;21982;49.804;24.072;2023-02-28T01:26:27;98408.81;;;-1.51;67.00
35878;BME280;21982;49.804;24.072;2023-02-28T01:28:53;98277.00;;;-2.23;67.01
35878;BME280;21982;49.804;24.072;2023-02-28T01:31:20;98216.47;;;-2.85;66.95
35878;BME280;21982;49.804;24.072;2023-02-28T01:33:46;98276.09;;;-2.22;66.54
35878;BME280;21982;49.804;24.072;2023-02-28T01:36:14;98355.47;;;-1.72;66.82
35878;BME280;21982;49.804;24.072;2023-02-28T01:38:40;98415.72;;;-1.36;66.85
35878;BME280;21982;49.804;24.072;2023-02-28T01:41:07;98418.34;;;-1.36;66.70
35878;BME280;21982;49.804;24.072;2023-02-28T01:46:10;98363.88;;;-1.83;66.86
35878;BME280;21982;49.804;24.072;2023-02-28T01:48:39;98412.25;;;-1.50;66.73
35878;BME280;21982;49.804;24.072;2023-02-28T01:53:37;98308.13;;;-2.39;66.85
35878;BME280;21982;49.804;24.072;2023-02-28T01:56:07;98406.91;;;-1.63;67.19
35878;BME280;21982;49.804;24.072;2023-02-28T01:58:34;98145.47;;;-3.29;67.00
35878;BME280;21982;49.804;24.072;2023-02-28T02:01:00;98311.81;;;-2.27;66.83
35878;BME280;21982;49.804;24.072;2023-02-28T02:03:28;98331.75;;;-2.12;67.07
35878;BME280;21982;49.804;24.072;2023-02-28T02:05:54;98175.06;;;-3.18;66.61
35878;BME280;21982;49.804;24.072;2023-02-28T02:08:22;98365.88;;;-2.04;66.94
35878;BME280;21982;49.804;24.072;2023-02-28T02:10:50;98408.16;;;-1.70;67.25
35878;BME280;21982;49.804;24.072;2023-02-28T02:34:31;98304.31;;;-2.47;66.43
35878;BME280;21982;49.804;24.072;2023-02-28T02:39:48;98414.13;;;-1.84;66.79
35878;BME280;21982;49.804;24.072;2023-02-28T02:42:24;98394.28;;;-1.85;66.65
35878;BME280;21982;49.804;24.072;2023-02-28T02:45:00;98391.25;;;-1.93;66.37
35878;BME280;21982;49.804;24.072;2023-02-28T02:47:29;98241.38;;;-2.82;66.39
35878;BME280;21982;49.804;24.072;2023-02-28T02:49:59;98404.00;;;-1.88;66.21
35878;BME280;21982;49.804;24.072;2023-02-28T02:52:34;98386.81;;;-2.07;66.39
35878;BME280;21982;49.804;24.072;2023-02-28T02:55:03;98311.13;;;-2.62;66.37
35878;BME280;21982;49.804;24.072;2023-02-28T02:57:36;98121.13;;;-3.91;66.19
35878;BME280;21982;49.804;24.072;2023-02-28T03:00:05;98422.66;;;-1.97;66.47
35878;BME280;21982;49.804;24.072;2023-02-28T03:02:34;98250.03;;;-3.15;66.34
35878;BME280;21982;49.804;24.072;2023-02-28T03:05:05;98424.41;;;-1.98;66.17
35878;BME280;21982;49.804;24.072;2023-02-28T03:07:31;98320.84;;;-2.65;66.58
35878;BME280;21982;49.804;24.072;2023-02-28T03:09:57;98419.06;;;-2.11;66.68
35878;BME280;21982;49.804;24.072;2023-02-28T03:12:30;98400.53;;;-2.20;66.52
35878;BME280;21982;49.804;24.072;2023-02-28T03:15:27;98416.28;;;-2.08;66.21
35878;BME280;21982;49.804;24.072;2023-02-28T03:18:10;98420.38;;;-2.04;66.34
35878;BME280;21982;49.804;24.072;2023-02-28T03:20:48;98418.63;;;-2.03;66.36
35878;BME280;21982;49.804;24.072;2023-02-28T03:23:53;98422.13;;;-2.04;66.39
35878;BME280;21982;49.804;24.072;2023-02-28T03:26:19;98312.97;;;-2.80;66.28
35878;BME280;21982;49.804;24.072;2023-02-28T03:31:52;98280.78;;;-3.09;65.65
35878;BME280;21982;49.804;24.072;2023-02-28T03:34:41;98429.44;;;-2.11;65.60
35878;BME280;21982;49.804;24.072;2023-02-28T03:37:12;98430.34;;;-2.12;65.84
35878;BME280;21982;49.804;24.072;2023-02-28T03:39:59;98430.59;;;-2.16;65.86
35878;BME280;21982;49.804;24.072;2023-02-28T03:42:28;98167.97;;;-3.80;65.81
35878;BME280;21982;49.804;24.072;2023-02-28T03:45:10;98394.84;;;-2.43;65.62
35878;BME280;21982;49.804;24.072;2023-02-28T03:47:41;98432.44;;;-2.18;65.78
35878;BME280;21982;49.804;24.072;2023-02-28T03:50:11;98435.72;;;-2.15;65.38
35878;BME280;21982;49.804;24.072;2023-02-28T03:52:44;98441.56;;;-2.11;65.62
35878;BME280;21982;49.804;24.072;2023-02-28T03:55:14;98344.47;;;-2.72;65.62
35878;BME280;21982;49.804;24.072;2023-02-28T03:57:59;98371.28;;;-2.55;65.28
35878;BME280;21982;49.804;24.072;2023-02-28T04:00:33;98413.16;;;-2.30;65.62
35878;BME280;21982;49.804;24.072;2023-02-28T04:02:59;98368.84;;;-2.58;65.78
35878;BME280;21982;49.804;24.072;2023-02-28T04:05:25;98438.72;;;-2.07;65.81
35878;BME280;21982;49.804;24.072;2023-02-28T04:07:51;98361.50;;;-2.50;65.69
35878;BME280;21982;49.804;24.072;2023-02-28T04:10:18;98333.03;;;-2.67;65.45
35878;BME280;21982;49.804;24.072;2023-02-28T04:15:20;98337.41;;;-2.52;65.33
35878;BME280;21982;49.804;24.072;2023-02-28T04:17:48;98445.13;;;-1.81;65.41
35878;BME280;21982;49.804;24.072;2023-02-28T04:20:13;98448.94;;;-1.72;65.42
35878;BME280;21982;49.804;24.072;2023-02-28T04:22:38;98313.47;;;-2.42;65.34
35878;BME280;21982;49.804;24.072;2023-02-28T04:25:04;98451.31;;;-1.52;64.82
35878;BME280;21982;49.804;24.072;2023-02-28T04:27:30;98249.31;;;-2.70;65.13
35878;BME280;21982;49.804;24.072;2023-02-28T04:29:56;98397.78;;;-1.70;64.69
35878;BME280;21982;49.804;24.072;2023-02-28T04:32:21;98431.69;;;-1.42;65.20
35878;BME280;21982;49.804;24.072;2023-02-28T04:37:15;98260.06;;;-2.44;64.76
35878;BME280;21982;49.804;24.072;2023-02-28T04:39:41;98305.63;;;-2.09;64.60
35878;BME280;21982;49.804;24.072;2023-02-28T04:42:07;98290.00;;;-2.23;64.39
35878;BME280;21982;49.804;24.072;2023-02-28T04:44:39;98336.06;;;-1.81;64.38
35878;BME280;21982;49.804;24.072;2023-02-28T04:47:04;98110.97;;;-3.14;64.28
35878;BME280;21982;49.804;24.072;2023-02-28T04:49:30;98436.47;;;-1.04;64.53
35878;BME280;21982;49.804;24.072;2023-02-28T04:51:55;98337.88;;;-1.67;64.22
35878;BME280;21982;49.804;24.072;2023-02-28T04:54:22;98433.22;;;-0.93;63.90
35878;BME280;21982;49.804;24.072;2023-02-28T04:56:47;98423.84;;;-0.96;63.72
35878;BME280;21982;49.804;24.072;2023-02-28T05:01:50;98410.50;;;-1.20;63.46
35878;BME280;21982;49.804;24.072;2023-02-28T05:04:15;98301.84;;;-1.87;63.60
35878;BME280;21982;49.804;24.072;2023-02-28T05:14:27;98357.94;;;-1.39;63.62
35878;BME280;21982;49.804;24.072;2023-02-28T05:16:53;98326.06;;;-1.57;63.99
35878;BME280;21982;49.804;24.072;2023-02-28T05:19:18;98433.38;;;-1.11;63.61
35878;BME280;21982;49.804;24.072;2023-02-28T05:21:52;98333.59;;;-1.68;63.33
35878;BME280;21982;49.804;24.072;2023-02-28T05:24:19;98267.13;;;-2.16;63.19
35878;BME280;21982;49.804;24.072;2023-02-28T05:26:48;98441.09;;;-1.09;63.47
35878;BME280;21982;49.804;24.072;2023-02-28T05:29:15;98266.47;;;-2.20;63.38
35878;BME280;21982;49.804;24.072;2023-02-28T05:31:40;98364.84;;;-1.54;63.62
35878;BME280;21982;49.804;24.072;2023-02-28T05:34:05;98274.84;;;-2.15;63.80
35878;BME280;21982;49.804;24.072;2023-02-28T05:36:31;98213.41;;;-2.30;63.54
35878;BME280;21982;49.804;24.072;2023-02-28T05:38:56;98446.16;;;-0.92;63.35
35878;BME280;21982;49.804;24.072;2023-02-28T05:41:23;98476.56;;;-0.78;63.27
35878;BME280;21982;49.804;24.072;2023-02-28T05:43:49;98347.00;;;-1.60;63.24
35878;BME280;21982;49.804;24.072;2023-02-28T05:46:14;98476.34;;;-0.45;63.27
35878;BME280;21982;49.804;24.072;2023-02-28T05:48:41;98141.28;;;-2.53;63.09
35878;BME280;21982;49.804;24.072;2023-02-28T05:51:08;98442.34;;;-0.42;62.68
35878;BME280;21982;49.804;24.072;2023-02-28T05:53:34;98483.53;;;-0.06;62.67
35878;BME280;21982;49.804;24.072;2023-02-28T06:03:45;98146.50;;;-2.39;62.49
35878;BME280;21982;49.804;24.072;2023-02-28T06:06:10;98434.13;;;-0.79;62.64
35878;BME280;21982;49.804;24.072;2023-02-28T06:08:36;98322.75;;;-1.45;62.64
35878;BME280;21982;49.804;24.072;2023-02-28T06:11:04;98507.78;;;-0.20;62.35
35878;BME280;21982;49.804;24.072;2023-02-28T06:13:30;98389.56;;;-1.03;62.54
35878;BME280;21982;49.804;24.072;2023-02-28T06:15:56;98511.06;;;-0.02;62.23
35878;BME280;21982;49.804;24.072;2023-02-28T06:18:21;98504.81;;;0.15;62.27
35878;BME280;21982;49.804;24.072;2023-02-28T06:20:53;98397.34;;;-0.30;61.55
35878;BME280;21982;49.804;24.072;2023-02-28T06:23:22;98411.75;;;-0.24;61.33
35878;BME280;21982;49.804;24.072;2023-02-28T06:25:48;98503.69;;;0.33;61.42
35878;BME280;21982;49.804;24.072;2023-02-28T06:28:14;98514.28;;;0.44;61.29
35878;BME280;21982;49.804;24.072;2023-02-28T06:30:40;98527.28;;;0.58;61.59
35878;BME280;21982;49.804;24.072;2023-02-28T06:33:05;98317.81;;;-0.48;61.09
35878;BME280;21982;49.804;24.072;2023-02-28T06:35:31;98357.03;;;-0.37;60.74
35878;BME280;21982;49.804;24.072;2023-02-28T06:37:57;98533.66;;;0.81;60.83
35878;BME280;21982;49.804;24.072;2023-02-28T06:40:22;98358.50;;;-0.19;60.58
35878;BME280;21982;49.804;24.072;2023-02-28T06:42:47;98513.81;;;0.79;60.38
35878;BME280;21982;49.804;24.072;2023-02-28T06:45:13;98320.25;;;-0.45;60.56
35878;BME280;21982;49.804;24.072;2023-02-28T06:47:57;98179.88;;;-1.16;60.34
35878;BME280;21982;49.804;24.072;2023-02-28T06:50:23;98162.44;;;-1.28;60.57
35878;BME280;21982;49.804;24.072;2023-02-28T06:52:49;98362.22;;;-0.23;60.42
35878;BME280;21982;49.804;24.072;2023-02-28T06:55:18;98428.66;;;0.52;60.19
35878;BME280;21982;49.804;24.072;2023-02-28T06:57:44;98428.06;;;0.61;60.51
35878;BME280;21982;49.804;24.072;2023-02-28T07:00:10;98522.38;;;1.08;60.64
35878;BME280;21982;49.804;24.072;2023-02-28T07:02:36;98439.06;;;0.52;60.29
35878;BME280;21982;49.804;24.072;2023-02-28T07:05:03;98392.44;;;0.21;60.13
35878;BME280;21982;49.804;24.072;2023-02-28T07:07:29;98475.66;;;0.78;60.01
35878;BME280;21982;49.804;24.072;2023-02-28T07:09:55;98470.22;;;0.68;60.44
35878;BME280;21982;49.804;24.072;2023-02-28T07:12:23;98516.66;;;1.03;60.22
35878;BME280;21982;49.804;24.072;2023-02-28T07:14:48;98480.63;;;0.95;60.41
35878;BME280;21982;49.804;24.072;2023-02-28T07:17:13;98514.81;;;1.17;60.27
35878;BME280;21982;49.804;24.072;2023-02-28T07:22:07;98508.31;;;1.50;60.07
35878;BME280;21982;49.804;24.072;2023-02-28T07:24:33;98511.25;;;1.58;59.43
35878;BME280;21982;49.804;24.072;2023-02-28T07:26:58;98462.06;;;1.52;59.00
35878;BME280;21982;49.804;24.072;2023-02-28T07:29:24;98503.22;;;1.86;59.26
35878;BME280;21982;49.804;24.072;2023-02-28T07:31:50;98394.53;;;1.34;58.74
35878;BME280;21982;49.804;24.072;2023-02-28T07:34:18;98485.47;;;1.79;59.09
35878;BME280;21982;49.804;24.072;2023-02-28T07:36:44;98507.91;;;1.81;59.16
35878;BME280;21982;49.804;24.072;2023-02-28T07:39:10;98452.13;;;1.44;58.89
35878;BME280;21982;49.804;24.072;2023-02-28T07:41:36;98476.44;;;1.45;58.50
35878;BME280;21982;49.804;24.072;2023-02-28T07:44:10;98422.97;;;1.12;58.94
35878;BME280;21982;49.804;24.072;2023-02-28T07:46:35;98503.53;;;1.94;59.02
35878;BME280;21982;49.804;24.072;2023-02-28T07:49:01;98522.94;;;2.41;58.65
35878;BME280;21982;49.804;24.072;2023-02-28T07:51:29;98486.47;;;2.40;58.32
35878;BME280;21982;49.804;24.072;2023-02-28T07:54:00;98491.94;;;2.60;57.41
35878;BME280;21982;49.804;24.072;2023-02-28T07:56:28;98463.81;;;2.51;57.74
35878;BME280;21982;49.804;24.072;2023-02-28T07:58:55;98477.69;;;2.64;57.30
35878;BME280;21982;49.804;24.072;2023-02-28T08:01:22;98353.00;;;1.93;57.07
35878;BME280;21982;49.804;24.072;2023-02-28T08:03:48;98463.38;;;2.57;56.80
35878;BME280;21982;49.804;24.072;2023-02-28T08:06:20;98437.75;;;2.39;56.90
35878;BME280;21982;49.804;24.072;2023-02-28T08:08:46;98373.19;;;2.15;57.02
35878;BME280;21982;49.804;24.072;2023-02-28T08:11:13;98524.97;;;3.22;56.55
35878;BME280;21982;49.804;24.072;2023-02-28T08:13:39;98526.38;;;3.50;56.40
35878;BME280;21982;49.804;24.072;2023-02-28T08:16:05;98458.63;;;3.34;55.69
35878;BME280;21982;49.804;24.072;2023-02-28T08:18:32;98485.03;;;3.77;55.42
35878;BME280;21982;49.804;24.072;2023-02-28T08:20:57;98451.22;;;3.74;55.46
35878;BME280;21982;49.804;24.072;2023-02-28T08:23:24;98537.25;;;4.58;54.84
35878;BME280;21982;49.804;24.072;2023-02-28T08:25:55;98538.69;;;4.74;53.74
35878;BME280;21982;49.804;24.072;2023-02-28T08:28:22;98466.81;;;4.31;53.68
35878;BME280;21982;49.804;24.072;2023-02-28T08:30:47;98543.47;;;4.80;53.03
35878;BME280;21982;49.804;24.072;2023-02-28T08:33:12;98458.00;;;4.32;52.91
35878;BME280;21982;49.804;24.072;2023-02-28T08:35:38;98494.84;;;4.31;52.62
35878;BME280;21982;49.804;24.072;2023-02-28T08:38:03;98541.91;;;4.66;53.15
35878;BME280;21982;49.804;24.072;2023-02-28T08:40:29;98522.00;;;4.52;52.79
35878;BME280;21982;49.804;24.072;2023-02-28T08:42:55;98496.03;;;4.49;52.49
35878;BME280;21982;49.804;24.072;2023-02-28T08:45:20;98513.16;;;4.64;52.58
35878;BME280;21982;49.804;24.072;2023-02-28T08:47:46;98495.41;;;4.68;52.39
35878;BME280;21982;49.804;24.072;2023-02-28T08:50:11;98466.41;;;4.69;52.20
35878;BME280;21982;49.804;24.072;2023-02-28T08:52:42;98411.59;;;4.55;51.53
35878;BME280;21982;49.804;24.072;2023-02-28T08:55:08;98492.78;;;5.11;51.51
35878;BME280;21982;49.804;24.072;2023-02-28T08:57:34;98510.38;;;5.31;51.28
35878;BME280;21982;49.804;24.072;2023-02-28T09:00:00;98523.59;;;5.62;50.99
35878;BME280;21982;49.804;24.072;2023-02-28T09:02:31;98466.16;;;5.36;50.42
35878;BME280;21982;49.804;24.072;2023-02-28T09:04:57;98546.97;;;5.97;50.77
35878;BME280;21982;49.804;24.072;2023-02-28T09:07:24;98495.03;;;5.89;50.37
35878;BME280;21982;49.804;24.072;2023-02-28T09:09:49;98544.34;;;6.18;49.92
35878;BME280;21982;49.804;24.072;2023-02-28T09:12:22;98533.44;;;6.01;49.89
35878;BME280;21982;49.804;24.072;2023-02-28T09:14:48;98543.97;;;6.22;50.16
35878;BME280;21982;49.804;24.072;2023-02-28T09:17:13;98542.75;;;6.36;50.13
35878;BME280;21982;49.804;24.072;2023-02-28T09:19:39;98294.28;;;4.99;49.21
35878;BME280;21982;49.804;24.072;2023-02-28T09:22:04;98555.16;;;6.45;49.44
35878;BME280;21982;49.804;24.072;2023-02-28T09:24:29;98535.13;;;6.33;49.50
35878;BME280;21982;49.804;24.072;2023-02-28T09:26:56;98380.25;;;5.27;49.65
35878;BME280;21982;49.804;24.072;2023-02-28T09:29:22;98527.88;;;6.16;49.43
35878;BME280;21982;49.804;24.072;2023-02-28T09:31:47;98240.22;;;4.66;49.57
35878;BME280;21982;49.804;24.072;2023-02-28T09:34:13;98530.38;;;6.88;49.73
35878;BME280;21982;49.804;24.072;2023-02-28T09:36:42;98344.84;;;6.03;48.60
35878;BME280;21982;49.804;24.072;2023-02-28T09:39:08;98527.66;;;7.37;47.95
35878;BME280;21982;49.804;24.072;2023-02-28T09:41:40;98231.06;;;5.92;47.41
35878;BME280;21982;49.804;24.072;2023-02-28T09:46:48;98519.63;;;7.49;49.22
35878;BME280;21982;49.804;24.072;2023-02-28T09:49:23;98523.22;;;7.67;48.00
35878;BME280;21982;49.804;24.072;2023-02-28T09:51:58;98524.34;;;7.55;47.51
35878;BME280;21982;49.804;24.072;2023-02-28T09:54:28;98435.28;;;7.00;47.87
35878;BME280;21982;49.804;24.072;2023-02-28T09:57:23;98519.88;;;7.65;47.92
35878;BME280;21982;49.804;24.072;2023-02-28T10:00:18;98439.06;;;7.07;48.00
35878;BME280;21982;49.804;24.072;2023-02-28T10:05:37;98519.69;;;8.05;47.23
35878;BME280;21982;49.804;24.072;2023-02-28T10:08:28;98300.19;;;6.61;46.32
35878;BME280;21982;49.804;24.072;2023-02-28T10:11:07;98517.66;;;7.70;46.79
35878;BME280;21982;49.804;24.072;2023-02-28T10:13:37;98486.47;;;7.36;46.82
35878;BME280;21982;49.804;24.072;2023-02-28T10:16:12;98454.16;;;7.34;45.72
35878;BME280;21982;49.804;24.072;2023-02-28T10:18:59;98521.81;;;7.92;46.17
35878;BME280;21982;49.804;24.072;2023-02-28T10:24:54;98517.06;;;8.52;45.05
35878;BME280;21982;49.804;24.072;2023-02-28T10:27:28;98437.28;;;7.93;45.22
35878;BME280;21982;49.804;24.072;2023-02-28T10:29:56;98420.56;;;8.02;45.12
35878;BME280;21982;49.804;24.072;2023-02-28T10:32:31;98465.78;;;8.54;44.74
35878;BME280;21982;49.804;24.072;2023-02-28T10:35:09;98277.44;;;8.00;43.90
35878;BME280;21982;49.804;24.072;2023-02-28T10:37:41;98512.63;;;10.22;43.35
35878;BME280;21982;49.804;24.072;2023-02-28T10:40:30;98511.09;;;10.45;43.13
35878;BME280;21982;49.804;24.072;2023-02-28T10:43:17;98439.31;;;9.70;42.85
35878;BME280;21982;49.804;24.072;2023-02-28T10:45:56;98480.09;;;10.12;43.25
35878;BME280;21982;49.804;24.072;2023-02-28T10:55:43;98384.28;;;13.14;39.47
35878;BME280;21982;49.804;24.072;2023-02-28T10:58:22;98488.72;;;15.02;38.62
35878;BME280;21982;49.804;24.072;2023-02-28T11:00:48;98454.97;;;15.52;36.66
35878;BME280;21982;49.804;24.072;2023-02-28T11:03:29;98480.63;;;16.17;36.48
35878;BME280;21982;49.804;24.072;2023-02-28T11:05:55;98389.75;;;15.82;35.56
35878;BME280;21982;49.804;24.072;2023-02-28T11:08:21;98343.38;;;15.40;35.28
35878;BME280;21982;49.804;24.072;2023-02-28T11:10:57;98467.69;;;16.20;35.16
35878;BME280;21982;49.804;24.072;2023-02-28T11:13:35;98374.28;;;15.78;34.97
35878;BME280;21982;49.804;24.072;2023-02-28T11:16:06;98482.72;;;16.00;34.39
35878;BME280;21982;49.804;24.072;2023-02-28T11:18:49;98452.88;;;15.26;35.40
35878;BME280;21982;49.804;24.072;2023-02-28T11:21:26;98288.16;;;13.39;35.43
35878;BME280;21982;49.804;24.072;2023-02-28T11:23:57;98177.84;;;12.46;35.63
35878;BME280;21982;49.804;24.072;2023-02-28T11:26:45;98479.06;;;14.50;35.52
35878;BME280;21982;49.804;24.072;2023-02-28T11:29:18;98482.72;;;14.79;35.35
35878;BME280;21982;49.804;24.072;2023-02-28T11:34:26;98448.44;;;14.97;34.01
35878;BME280;21982;49.804;24.072;2023-02-28T11:36:54;98427.47;;;14.28;33.76
35878;BME280;21982;49.804;24.072;2023-02-28T11:39:23;98331.44;;;12.65;34.70
35878;BME280;21982;49.804;24.072;2023-02-28T11:42:20;98436.84;;;12.41;36.05
35878;BME280;21982;49.804;24.072;2023-02-28T11:45:12;98472.66;;;11.82;36.57
35878;BME280;21982;49.804;24.072;2023-02-28T11:48:06;98333.88;;;10.60;37.53
35878;BME280;21982;49.804;24.072;2023-02-28T11:50:57;98465.94;;;11.13;37.39
35878;BME280;21982;49.804;24.072;2023-02-28T11:53:44;98463.25;;;10.89;37.45
35878;BME280;21982;49.804;24.072;2023-02-28T11:56:33;98459.63;;;10.48;38.29
35878;BME280;21982;49.804;24.072;2023-02-28T12:10:29;98313.94;;;10.23;37.69
35878;BME280;21982;49.804;24.072;2023-02-28T12:13:20;98451.88;;;11.21;37.87
35878;BME280;21982;49.804;24.072;2023-02-28T12:23:59;98450.06;;;11.29;36.91
35878;BME280;21982;49.804;24.072;2023-02-28T12:26:44;98442.66;;;10.66;38.80
35878;BME280;21982;49.804;24.072;2023-02-28T12:29:32;98437.78;;;10.96;38.48
35878;BME280;21982;49.804;24.072;2023-02-28T12:32:12;98401.44;;;10.64;37.65
35878;BME280;21982;49.804;24.072;2023-02-28T12:34:56;98371.09;;;10.16;38.41
35878;BME280;21982;49.804;24.072;2023-02-28T12:40:00;98426.97;;;9.79;39.60
35878;BME280;21982;49.804;24.072;2023-02-28T12:42:29;98293.44;;;8.80;39.41
35878;BME280;21982;49.804;24.072;2023-02-28T12:45:02;98423.44;;;9.70;38.48
35878;BME280;21982;49.804;24.072;2023-02-28T12:47:29;98416.66;;;9.68;39.06
35878;BME280;21982;49.804;24.072;2023-02-28T12:50:07;98420.16;;;9.51;39.41
35878;BME280;21982;49.804;24.072;2023-02-28T12:52:56;98416.31;;;9.45;38.82
35878;BME280;21982;49.804;24.072;2023-02-28T13:00:55;98398.41;;;9.39;39.11
35878;BME280;21982;49.804;24.072;2023-02-28T13:09:08;98408.56;;;10.71;38.33
35878;BME280;21982;49.804;24.072;2023-02-28T13:14:18;98283.84;;;11.38;37.45
35878;BME280;21982;49.804;24.072;2023-02-28T13:16:56;98401.84;;;12.38;36.94
35878;BME280;21982;49.804;24.072;2023-02-28T13:19:24;98396.97;;;12.81;36.40
35878;BME280;21982;49.804;24.072;2023-02-28T13:21:51;98244.88;;;11.94;35.65
35878;BME280;21982;49.804;24.072;2023-02-28T13:24:42;98246.00;;;11.99;36.03
35878;BME280;21982;49.804;24.072;2023-02-28T13:29:34;98312.72;;;11.96;36.09
35878;BME280;21982;49.804;24.072;2023-02-28T13:34:33;98169.78;;;10.83;36.01
35878;BME280;21982;49.804;24.072;2023-02-28T13:47:44;98379.81;;;8.69;38.89
35878;BME280;21982;49.804;24.072;2023-02-28T13:53:34;98375.53;;;7.86;39.94
35878;BME280;21982;49.804;24.072;2023-02-28T13:58:41;98365.72;;;7.22;40.59
35878;BME280;21982;49.804;24.072;2023-02-28T14:06:25;98374.81;;;6.22;41.36
35878;BME280;21982;49.804;24.072;2023-02-28T14:11:37;98284.44;;;5.12;42.60
35878;BME280;21982;49.804;24.072;2023-02-28T14:14:05;98263.63;;;4.99;43.21
35878;BME280;21982;49.804;24.072;2023-02-28T14:16:49;97978.03;;;3.11;42.47
35878;BME280;21982;49.804;24.072;2023-02-28T14:19:27;98273.75;;;4.83;43.28
35878;BME280;21982;49.804;24.072;2023-02-28T14:22:29;98188.38;;;4.17;43.44
35878;BME280;21982;49.804;24.072;2023-02-28T14:28:28;98366.50;;;5.14;44.06
35878;BME280;21982;49.804;24.072;2023-02-28T14:31:10;98363.63;;;5.17;43.94
35878;BME280;21982;49.804;24.072;2023-02-28T14:36:43;98373.72;;;4.80;44.28
35878;BME280;21982;49.804;24.072;2023-02-28T14:39:14;98312.94;;;4.43;44.28
35878;BME280;21982;49.804;24.072;2023-02-28T14:41:43;98364.69;;;4.73;44.46
35878;BME280;21982;49.804;24.072;2023-02-28T14:44:22;98369.59;;;4.66;44.98
35878;BME280;21982;49.804;24.072;2023-02-28T14:46:53;98327.56;;;4.14;44.96
35878;BME280;21982;49.804;24.072;2023-02-28T14:49:32;98236.66;;;3.60;45.13
35878;BME280;21982;49.804;24.072;2023-02-28T14:52:21;98058.72;;;2.50;45.47
35878;BME280;21982;49.804;24.072;2023-02-28T14:54:53;97816.16;;;0.89;45.72
35878;BME280;21982;49.804;24.072;2023-02-28T14:57:30;98287.72;;;3.54;45.83
35878;BME280;21982;49.804;24.072;2023-02-28T14:59:58;98007.25;;;1.83;45.81
35878;BME280;21982;49.804;24.072;2023-02-28T15:02:25;98323.81;;;3.73;46.04
35878;BME280;21982;49.804;24.072;2023-02-28T15:04:59;98306.66;;;3.47;46.31
35878;BME280;21982;49.804;24.072;2023-02-28T15:07:26;98103.47;;;2.00;46.94
35878;BME280;21982;49.804;24.072;2023-02-28T15:12:40;98190.94;;;2.30;46.94
35878;BME280;21982;49.804;24.072;2023-02-28T15:15:14;98257.38;;;2.85;47.01
35878;BME280;21982;49.804;24.072;2023-02-28T15:22:51;98396.88;;;3.31;47.84
35878;BME280;21982;49.804;24.072;2023-02-28T15:25:22;98333.88;;;2.99;48.46
35878;BME280;21982;49.804;24.072;2023-02-28T15:30:28;98236.09;;;2.32;48.55
35878;BME280;21982;49.804;24.072;2023-02-28T15:35:38;98282.31;;;2.43;49.15
35878;BME280;21982;49.804;24.072;2023-02-28T15:38:21;98362.81;;;2.85;48.82
35878;BME280;21982;49.804;24.072;2023-02-28T15:40:54;98366.72;;;2.80;48.78
35878;BME280;21982;49.804;24.072;2023-02-28T15:43:32;98365.44;;;2.74;49.49
35878;BME280;21982;49.804;24.072;2023-02-28T15:46:00;98364.81;;;2.71;49.63
35878;BME280;21982;49.804;24.072;2023-02-28T15:48:29;98325.22;;;2.40;49.71
35878;BME280;21982;49.804;24.072;2023-02-28T15:53:33;98309.94;;;2.23;50.25
35878;BME280;21982;49.804;24.072;2023-02-28T15:56:05;98365.63;;;2.47;50.45
35878;BME280;21982;49.804;24.072;2023-02-28T15:58:33;98363.25;;;2.44;50.46